createdAt,value
2019-05-03T00:00:57.134Z,100187.48
2019-05-03T00:03:22.925Z,100195.83
2019-05-03T00:05:50.105Z,100192.53
2019-05-03T00:08:15.995Z,100190.86
2019-05-03T00:10:42.543Z,100190.72
2019-05-03T00:13:08.577Z,100195.59
2019-05-03T00:15:36.357Z,100198.59
2019-05-03T00:18:02.460Z,100204.62
2019-05-03T00:20:28.244Z,100201.75
2019-05-03T00:22:54.016Z,100201.42
2019-05-03T00:25:21.970Z,100205.09
2019-05-03T00:27:47.492Z,100202.61
2019-05-03T00:30:13.286Z,100204.43
2019-05-03T00:32:39.066Z,100205.32
2019-05-03T00:35:15.812Z,100209.30
2019-05-03T00:37:46.010Z,100207.95
2019-05-03T00:40:13.803Z,100204.62
2019-05-03T00:42:39.588Z,100198.97
2019-05-03T00:45:06.097Z,100197.45
2019-05-03T00:47:32.893Z,100195.63
2019-05-03T00:49:58.786Z,100200.98
2019-05-03T00:52:24.578Z,100205.80
2019-05-03T00:54:50.369Z,100196.97
2019-05-03T00:57:16.153Z,100196.78
2019-05-03T00:59:42.102Z,100188.28
2019-05-03T01:02:07.923Z,100201.98
2019-05-03T01:04:33.813Z,100196.66
2019-05-03T01:06:59.683Z,100196.00
2019-05-03T01:09:25.583Z,100199.85
2019-05-03T01:11:52.462Z,100198.67
2019-05-03T01:14:18.347Z,100193.14
2019-05-03T01:16:44.139Z,100200.00
2019-05-03T01:19:11.960Z,100203.37
2019-05-03T01:21:37.636Z,100202.67
2019-05-03T01:24:03.411Z,100200.34
2019-05-03T01:26:29.210Z,100204.19
2019-05-03T01:28:54.991Z,100206.37
2019-05-03T01:31:22.673Z,100206.37
2019-05-03T01:33:48.466Z,100210.56
2019-05-03T01:36:14.354Z,100207.04
2019-05-03T01:38:42.203Z,100214.08
2019-05-03T01:41:07.817Z,100212.73
2019-05-03T01:43:33.602Z,100215.73
2019-05-03T01:45:59.391Z,100212.39
2019-05-03T01:48:32.888Z,100216.42
2019-05-03T01:51:02.752Z,100202.72
2019-05-03T01:53:32.135Z,100216.06
2019-05-03T01:55:57.866Z,100210.08
2019-05-03T01:58:23.650Z,100211.24
2019-05-03T02:00:54.861Z,100203.73
2019-05-03T02:03:34.140Z,100204.73
2019-05-03T02:05:59.938Z,100201.21
2019-05-03T02:08:25.799Z,100202.05
2019-05-03T02:10:51.862Z,100206.74
2019-05-03T02:13:17.680Z,100205.39
2019-05-03T02:15:43.460Z,100215.41
2019-05-03T02:18:09.252Z,100216.06
2019-05-03T02:20:35.026Z,100216.59
2019-05-03T02:23:02.567Z,100221.42
2019-05-03T02:25:28.500Z,100214.09
2019-05-03T02:27:54.291Z,100221.07
2019-05-03T02:30:20.064Z,100223.08
2019-05-03T02:32:45.867Z,100222.41
2019-05-03T02:35:13.961Z,100226.41
2019-05-03T02:37:43.883Z,100226.25
2019-05-03T02:40:09.521Z,100224.42
2019-05-03T02:42:35.685Z,100215.92
2019-05-03T02:45:01.942Z,100221.42
2019-05-03T02:47:29.709Z,100226.59
2019-05-03T02:49:57.432Z,100230.75
2019-05-03T02:52:36.937Z,100237.44
2019-05-03T02:55:06.117Z,100228.09
2019-05-03T02:57:32.168Z,100230.92
2019-05-03T02:59:57.947Z,100237.08
2019-05-03T03:02:26.319Z,100235.59
2019-05-03T03:04:51.522Z,100237.10
2019-05-03T03:07:17.500Z,100237.09
2019-05-03T03:09:45.295Z,100241.95
2019-05-03T03:12:15.236Z,100246.61
2019-05-03T03:14:45.526Z,100239.59
2019-05-03T03:17:12.295Z,100245.62
2019-05-03T03:19:38.194Z,100247.10
2019-05-03T03:22:06.194Z,100241.44
2019-05-03T03:24:32.765Z,100244.10
2019-05-03T03:27:00.438Z,100248.78
2019-05-03T03:29:26.474Z,100245.29
2019-05-03T03:31:58.104Z,100246.12
2019-05-03T03:37:01.014Z,100242.30
2019-05-03T03:39:21.588Z,100244.63
2019-05-03T03:44:15.255Z,100250.80
2019-05-03T03:46:45.287Z,100251.95
2019-05-03T03:49:10.715Z,100258.64
2019-05-03T03:51:37.901Z,100255.80
2019-05-03T03:54:06.031Z,100249.47
2019-05-03T03:56:37.186Z,100263.64
2019-05-03T03:59:01.067Z,100262.49
2019-05-03T04:01:26.965Z,100267.33
2019-05-03T04:03:52.734Z,100271.84
2019-05-03T04:06:18.528Z,100274.52
2019-05-03T04:08:45.355Z,100278.52
2019-05-03T04:11:11.292Z,100284.17
2019-05-03T04:13:38.480Z,100287.69
2019-05-03T04:16:09.191Z,100287.85
2019-05-03T04:18:52.124Z,100289.20
2019-05-03T04:21:20.013Z,100300.70
2019-05-03T04:23:45.980Z,100297.03
2019-05-03T04:26:11.786Z,100301.20
2019-05-03T04:28:37.855Z,100302.69
2019-05-03T04:31:06.016Z,100308.88
2019-05-03T04:33:31.321Z,100309.88
2019-05-03T04:35:57.119Z,100316.74
2019-05-03T04:38:25.600Z,100314.23
2019-05-03T04:40:51.419Z,100320.91
2019-05-03T04:43:17.212Z,100321.92
2019-05-03T04:45:45.633Z,100326.92
2019-05-03T04:48:11.480Z,100324.59
2019-05-03T04:50:37.285Z,100327.25
2019-05-03T04:53:05.621Z,100331.58
2019-05-03T04:55:30.729Z,100333.03
2019-05-03T04:57:56.526Z,100330.70
2019-05-03T05:00:25.364Z,100335.68
2019-05-03T05:02:49.966Z,100336.68
2019-05-03T05:05:15.739Z,100342.81
2019-05-03T05:07:41.527Z,100343.86
2019-05-03T05:10:07.299Z,100344.82
2019-05-03T05:12:35.413Z,100342.30
2019-05-03T05:15:00.763Z,100346.77
2019-05-03T05:17:31.209Z,100342.42
2019-05-03T05:19:58.890Z,100347.06
2019-05-03T05:22:26.585Z,100350.88
2019-05-03T05:24:52.394Z,100352.06
2019-05-03T05:27:25.895Z,100357.05
2019-05-03T05:29:51.873Z,100353.83
2019-05-03T05:32:17.675Z,100360.52
2019-05-03T05:34:43.450Z,100358.97
2019-05-03T05:37:09.235Z,100360.00
2019-05-03T05:39:35.595Z,100365.94
2019-05-03T05:42:01.498Z,100368.95
2019-05-03T05:44:27.300Z,100368.41
2019-05-03T05:47:00.672Z,100365.84
2019-05-03T05:49:44.537Z,100376.30
2019-05-03T05:52:10.301Z,100373.80
2019-05-03T05:54:37.967Z,100370.62
2019-05-03T05:57:25.485Z,100369.00
2019-05-03T06:00:08.207Z,100368.31
2019-05-03T06:02:35.901Z,100372.53
2019-05-03T06:05:04.847Z,100378.24
2019-05-03T06:07:44.385Z,100380.86
2019-05-03T06:10:14.682Z,100383.42
2019-05-03T06:12:47.768Z,100375.62
2019-05-03T06:15:34.481Z,100378.25
2019-05-03T06:18:02.240Z,100385.77
2019-05-03T06:20:32.684Z,100384.61
2019-05-03T06:23:00.909Z,100387.02
2019-05-03T06:25:31.479Z,100384.44
2019-05-03T06:27:57.752Z,100386.33
2019-05-03T06:30:41.770Z,100375.76
2019-05-03T06:33:07.552Z,100382.67
2019-05-03T06:35:34.592Z,100384.14
2019-05-03T06:38:00.423Z,100381.55
2019-05-03T06:40:26.251Z,100390.30
2019-05-03T06:42:54.899Z,100385.02
2019-05-03T06:45:19.687Z,100390.77
2019-05-03T06:47:49.746Z,100392.57
2019-05-03T06:50:14.635Z,100393.96
2019-05-03T06:52:40.430Z,100389.50
2019-05-03T06:55:10.517Z,100384.12
2019-05-03T06:57:40.164Z,100392.67
2019-05-03T07:00:19.107Z,100388.67
2019-05-03T07:02:55.576Z,100390.64
2019-05-03T07:05:25.031Z,100385.31
2019-05-03T07:08:09.042Z,100394.82
2019-05-03T07:10:39.576Z,100394.82
2019-05-03T07:13:08.613Z,100392.30
2019-05-03T07:15:34.978Z,100390.30
2019-05-03T07:18:00.774Z,100393.26
2019-05-03T07:20:26.663Z,100385.31
2019-05-03T07:22:55.537Z,100383.80
2019-05-03T07:25:21.535Z,100381.72
2019-05-03T07:27:47.324Z,100382.52
2019-05-03T07:30:13.124Z,100392.19
2019-05-03T07:32:40.800Z,100389.44
2019-05-03T07:35:06.807Z,100391.85
2019-05-03T07:37:34.727Z,100387.25
2019-05-03T07:40:00.283Z,100387.25
2019-05-03T07:42:26.058Z,100396.34
2019-05-03T07:44:51.864Z,100392.53
2019-05-03T07:47:17.643Z,100396.41
2019-05-03T07:49:44.739Z,100398.16
2019-05-03T07:52:11.878Z,100400.87
2019-05-03T07:54:37.724Z,100393.45
2019-05-03T07:57:05.416Z,100393.45
2019-05-03T07:59:31.197Z,100394.36
2019-05-03T08:01:57.995Z,100396.61
2019-05-03T08:04:25.546Z,100391.31
2019-05-03T08:06:51.492Z,100391.72
2019-05-03T08:09:17.272Z,100404.80
2019-05-03T08:11:44.429Z,100400.81
2019-05-03T08:14:10.245Z,100392.86
2019-05-03T08:16:36.032Z,100410.25
2019-05-03T08:19:01.914Z,100400.72
2019-05-03T08:21:27.709Z,100406.81
2019-05-03T08:23:55.474Z,100396.50
2019-05-03T08:26:21.200Z,100401.42
2019-05-03T08:28:46.975Z,100400.73
2019-05-03T08:31:15.109Z,100402.00
2019-05-03T08:33:48.364Z,100396.89
2019-05-03T08:36:15.649Z,100402.44
2019-05-03T08:38:41.535Z,100408.04
2019-05-03T08:41:09.214Z,100395.55
2019-05-03T08:43:35.799Z,100397.99
2019-05-03T08:46:01.689Z,100398.55
2019-05-03T08:48:27.470Z,100391.80
2019-05-03T08:50:55.286Z,100399.14
2019-05-03T08:53:20.930Z,100393.80
2019-05-03T08:55:46.718Z,100391.72
2019-05-03T08:58:12.512Z,100399.81
2019-05-03T09:00:40.183Z,100398.62
2019-05-03T09:03:05.982Z,100399.27
2019-05-03T09:05:31.771Z,100407.02
2019-05-03T09:07:57.572Z,100402.02
2019-05-03T09:10:25.239Z,100393.30
2019-05-03T09:13:10.634Z,100402.03
2019-05-03T09:15:37.908Z,100397.85
2019-05-03T09:18:04.832Z,100396.27
2019-05-03T09:20:32.371Z,100408.42
2019-05-03T09:22:58.255Z,100409.73
2019-05-03T09:25:24.777Z,100410.56
2019-05-03T09:27:50.640Z,100405.30
2019-05-03T09:30:16.984Z,100396.58
2019-05-03T09:32:44.799Z,100402.13
2019-05-03T09:35:12.360Z,100381.87
2019-05-03T09:37:38.137Z,100400.52
2019-05-03T09:40:04.728Z,100400.90
2019-05-03T09:42:30.514Z,100406.39
2019-05-03T09:44:56.316Z,100409.13
2019-05-03T09:47:22.086Z,100405.61
2019-05-03T09:49:47.866Z,100402.56
2019-05-03T09:52:16.113Z,100406.70
2019-05-03T09:54:45.266Z,100400.29
2019-05-03T09:57:11.013Z,100397.64
2019-05-03T09:59:36.812Z,100390.66
2019-05-03T10:02:04.750Z,100393.26
2019-05-03T10:04:30.383Z,100392.40
2019-05-03T10:06:56.157Z,100384.61
2019-05-03T10:09:21.944Z,100385.60
2019-05-03T10:11:47.777Z,100389.79
2019-05-03T10:14:15.448Z,100382.64
2019-05-03T10:16:49.044Z,100379.78
2019-05-03T10:19:16.248Z,100379.78
2019-05-03T10:21:44.879Z,100366.66
2019-05-03T10:24:10.719Z,100374.13
2019-05-03T10:26:36.521Z,100374.13
2019-05-03T10:29:02.386Z,100392.20
2019-05-03T10:31:30.147Z,100388.32
2019-05-03T10:34:05.567Z,100372.05
2019-05-03T10:36:30.854Z,100363.34
2019-05-03T10:38:56.628Z,100368.79
2019-05-03T10:41:22.419Z,100374.55
2019-05-03T10:43:48.210Z,100379.81
2019-05-03T10:46:16.006Z,100394.69
2019-05-03T10:48:41.682Z,100409.11
2019-05-03T10:51:07.486Z,100409.87
2019-05-03T10:53:35.172Z,100416.89
2019-05-03T10:56:22.709Z,100422.66
2019-05-03T10:58:48.483Z,100415.21
2019-05-03T11:01:16.186Z,100437.67
2019-05-03T11:03:41.976Z,100414.36
2019-05-03T11:06:07.773Z,100412.01
2019-05-03T11:08:33.556Z,100413.20
2019-05-03T11:10:59.374Z,100410.54
2019-05-03T11:13:26.432Z,100403.56
2019-05-03T11:15:52.364Z,100403.88
2019-05-03T11:18:18.155Z,100394.29
2019-05-03T11:20:45.271Z,100396.47
2019-05-03T11:23:11.233Z,100387.07
2019-05-03T11:25:37.015Z,100389.30
2019-05-03T11:28:05.912Z,100387.71
2019-05-03T11:30:31.699Z,100387.97
2019-05-03T11:32:59.397Z,100385.53
2019-05-03T11:35:34.970Z,100384.73
2019-05-03T11:38:08.268Z,100383.86
2019-05-03T11:40:34.587Z,100376.13
2019-05-03T11:43:02.150Z,100376.20
2019-05-03T11:45:27.939Z,100379.48
2019-05-03T11:47:55.090Z,100379.48
2019-05-03T11:50:20.922Z,100379.05
2019-05-03T11:52:47.324Z,100379.00
2019-05-03T11:55:15.740Z,100384.39
2019-05-03T11:57:40.879Z,100378.37
2019-05-03T12:00:07.858Z,100372.97
2019-05-03T12:02:35.553Z,100377.62
2019-05-03T12:05:11.873Z,100378.47
2019-05-03T12:07:39.868Z,100372.44
2019-05-03T12:10:16.169Z,100377.20
2019-05-03T12:12:35.409Z,100371.84
2019-05-03T12:15:01.170Z,100369.44
2019-05-03T12:17:52.928Z,100386.37
2019-05-03T12:20:13.132Z,100388.47
2019-05-03T12:22:39.748Z,100388.33
2019-05-03T12:25:10.023Z,100404.02
2019-05-03T12:27:34.975Z,100397.05
2019-05-03T12:30:00.758Z,100394.25
2019-05-03T12:32:26.536Z,100403.27
2019-05-03T12:34:52.336Z,100404.75
2019-05-03T12:37:18.112Z,100417.25
2019-05-03T12:39:43.913Z,100403.81
2019-05-03T12:42:09.698Z,100395.06
2019-05-03T12:44:35.649Z,100398.19
2019-05-03T12:47:02.672Z,100398.55
2019-05-03T12:49:28.687Z,100386.58
2019-05-03T12:51:55.822Z,100374.55
2019-05-03T12:54:21.674Z,100379.70
2019-05-03T12:56:47.433Z,100374.41
2019-05-03T12:59:23.671Z,100368.44
2019-05-03T13:01:51.382Z,100369.27
2019-05-03T13:04:21.861Z,100382.64
2019-05-03T13:06:49.543Z,100377.14
2019-05-03T13:09:15.985Z,100367.25
2019-05-03T13:11:52.924Z,100366.17
2019-05-03T13:14:11.454Z,100365.97
2019-05-03T13:16:37.228Z,100362.78
2019-05-03T13:19:03.001Z,100363.03
2019-05-03T13:21:28.782Z,100365.58
2019-05-03T13:23:54.912Z,100354.67
2019-05-03T13:26:20.762Z,100349.89
2019-05-03T13:28:46.537Z,100342.24
2019-05-03T13:31:12.330Z,100349.43
2019-05-03T13:33:38.103Z,100336.56
2019-05-03T13:36:03.994Z,100345.91
2019-05-03T13:38:29.766Z,100343.66
2019-05-03T13:40:55.557Z,100336.72
2019-05-03T13:43:21.332Z,100333.05
2019-05-03T13:45:47.142Z,100333.70
2019-05-03T13:48:15.267Z,100324.41
2019-05-03T13:50:40.648Z,100316.71
2019-05-03T13:53:06.423Z,100322.75
2019-05-03T13:55:32.210Z,100311.70
2019-05-03T13:57:57.991Z,100318.14
2019-05-03T14:00:24.699Z,100317.15
2019-05-03T14:02:50.579Z,100327.06
2019-05-03T14:05:16.362Z,100321.91
2019-05-03T14:07:42.159Z,100307.75
2019-05-03T14:10:08.036Z,100313.97
2019-05-03T14:12:35.089Z,100315.77
2019-05-03T14:15:01.011Z,100312.05
2019-05-03T14:17:28.207Z,100310.77
2019-05-03T14:20:07.841Z,100307.35
2019-05-03T14:22:35.846Z,100301.05
2019-05-03T14:25:01.658Z,100306.11
2019-05-03T14:27:27.444Z,100291.06
2019-05-03T14:29:54.893Z,100296.09
2019-05-03T14:32:28.364Z,100315.36
2019-05-03T14:34:48.417Z,100333.50
2019-05-03T14:37:14.200Z,100337.92
2019-05-03T14:39:39.971Z,100317.83
2019-05-03T14:42:05.767Z,100316.41
2019-05-03T14:44:31.569Z,100307.98
2019-05-03T14:46:59.158Z,100303.89
2019-05-03T14:49:25.423Z,100295.42
2019-05-03T14:51:51.350Z,100305.22
2019-05-03T14:54:17.434Z,100305.56
2019-05-03T14:56:53.943Z,100298.27
2019-05-03T14:59:37.979Z,100318.86
2019-05-03T15:02:05.681Z,100328.56
2019-05-03T15:04:31.559Z,100307.92
2019-05-03T15:06:57.961Z,100300.86
2019-05-03T15:09:25.150Z,100297.64
2019-05-03T15:11:51.007Z,100290.56
2019-05-03T15:14:16.803Z,100287.29
2019-05-03T15:16:42.577Z,100289.03
2019-05-03T15:19:08.372Z,100284.70
2019-05-03T15:21:34.636Z,100283.27
2019-05-03T15:24:00.447Z,100280.90
2019-05-03T15:26:26.225Z,100284.50
2019-05-03T15:28:52.051Z,100274.41
2019-05-03T15:31:17.828Z,100275.14
2019-05-03T15:33:44.936Z,100270.78
2019-05-03T15:36:11.083Z,100269.31
2019-05-03T15:38:36.976Z,100265.67
2019-05-03T15:41:02.763Z,100256.31
2019-05-03T15:43:47.614Z,100254.86
2019-05-03T15:46:15.298Z,100254.46
2019-05-03T15:48:43.001Z,100254.46
2019-05-03T15:51:08.791Z,100244.72
2019-05-03T15:53:35.317Z,100253.34
2019-05-03T15:56:01.261Z,100249.42
2019-05-03T15:58:27.052Z,100245.24
2019-05-03T16:00:55.163Z,100244.70
2019-05-03T16:03:20.544Z,100246.04
2019-05-03T16:05:46.339Z,100233.73
2019-05-03T16:08:12.127Z,100240.27
2019-05-03T16:10:37.921Z,100232.80
2019-05-03T16:13:04.833Z,100232.80
2019-05-03T16:15:30.717Z,100230.48
2019-05-03T16:17:56.500Z,100230.48
2019-05-03T16:20:22.296Z,100249.21
2019-05-03T16:22:48.070Z,100247.47
2019-05-03T16:25:14.303Z,100240.39
2019-05-03T16:27:42.051Z,100237.77
2019-05-03T16:30:26.524Z,100234.16
2019-05-03T16:32:52.316Z,100237.19
2019-05-03T16:35:18.112Z,100237.19
2019-05-03T16:37:45.215Z,100240.31
2019-05-03T16:40:11.083Z,100267.67
2019-05-03T16:42:36.862Z,100267.67
2019-05-03T16:45:05.452Z,100263.30
2019-05-03T16:47:31.202Z,100265.62
2019-05-03T16:49:56.999Z,100251.95
2019-05-03T16:52:22.783Z,100257.81
2019-05-03T16:54:48.563Z,100249.80
2019-05-03T16:57:17.511Z,100259.03
2019-05-03T16:59:44.376Z,100254.59
2019-05-03T17:02:10.144Z,100254.22
2019-05-03T17:04:40.591Z,100268.80
2019-05-03T17:07:17.116Z,100259.81
2019-05-03T17:09:44.796Z,100250.42
2019-05-03T17:12:12.484Z,100252.69
2019-05-03T17:14:38.272Z,100248.56
2019-05-03T17:17:04.693Z,100248.53
2019-05-03T17:19:31.860Z,100248.53
2019-05-03T17:21:58.331Z,100242.97
2019-05-03T17:24:24.879Z,100239.23
2019-05-03T17:26:51.841Z,100239.22
2019-05-03T17:29:18.026Z,100229.63
2019-05-03T17:31:44.464Z,100240.43
2019-05-03T17:34:10.825Z,100237.58
2019-05-03T17:36:36.658Z,100238.22
2019-05-03T17:39:05.517Z,100230.55
2019-05-03T17:41:39.345Z,100238.78
2019-05-03T17:44:07.041Z,100179.18
2019-05-03T17:46:34.763Z,100244.60
2019-05-03T17:49:00.608Z,100243.09
2019-05-03T17:51:39.972Z,100240.43
2019-05-03T17:54:16.284Z,100237.83
2019-05-03T17:57:01.909Z,100235.45
2019-05-03T17:59:29.579Z,100221.48
2019-05-03T18:02:15.332Z,100234.77
2019-05-03T18:04:59.336Z,100229.71
2019-05-03T18:07:27.037Z,100232.69
2019-05-03T18:09:55.367Z,100225.66
2019-05-03T18:12:21.208Z,100223.56
2019-05-03T18:14:47.008Z,100218.36
2019-05-03T18:17:14.624Z,100218.98
2019-05-03T18:19:40.481Z,100218.30
2019-05-03T18:22:06.372Z,100213.47
2019-05-03T18:24:32.145Z,100212.72
2019-05-03T18:26:57.962Z,100204.45
2019-05-03T18:29:25.269Z,100214.28
2019-05-03T18:31:51.132Z,100211.11
2019-05-03T18:34:19.915Z,100204.91
2019-05-03T18:36:45.055Z,100203.78
2019-05-03T18:39:11.387Z,100201.69
2019-05-03T18:41:37.173Z,100193.16
2019-05-03T18:44:16.497Z,100199.83
2019-05-03T18:46:44.575Z,100198.68
2019-05-03T18:49:10.471Z,100196.96
2019-05-03T18:51:36.343Z,100192.53
2019-05-03T18:54:04.649Z,100192.94
2019-05-03T18:56:29.812Z,100201.98
2019-05-03T18:58:55.605Z,100204.98
2019-05-03T19:01:21.418Z,100202.19
2019-05-03T19:03:49.122Z,100199.33
2019-05-03T19:06:15.094Z,100199.74
2019-05-03T19:08:44.555Z,100201.11
2019-05-03T19:11:12.488Z,100207.97
2019-05-03T19:13:41.577Z,100203.13
2019-05-03T19:16:09.367Z,100199.33
2019-05-03T19:18:37.061Z,100199.88
2019-05-03T19:21:04.614Z,100203.44
2019-05-03T19:23:30.473Z,100201.16
2019-05-03T19:25:56.285Z,100192.53
2019-05-03T19:28:22.073Z,100197.55
2019-05-03T19:30:48.062Z,100197.63
2019-05-03T19:33:13.861Z,100195.57
2019-05-03T19:35:39.645Z,100198.78
2019-05-03T19:38:05.417Z,100211.37
2019-05-03T19:40:31.216Z,100203.73
2019-05-03T19:42:57.000Z,100204.73
2019-05-03T19:45:24.760Z,100198.33
2019-05-03T19:47:50.487Z,100190.95
2019-05-03T19:50:16.274Z,100195.31
2019-05-03T19:52:55.612Z,100203.84
2019-05-03T19:55:21.403Z,100206.48
2019-05-03T19:57:47.507Z,100208.14
2019-05-03T20:00:14.922Z,100202.13
2019-05-03T20:02:45.518Z,100198.92
2019-05-03T20:05:25.343Z,100185.66
2019-05-03T20:08:07.838Z,100191.20
2019-05-03T20:10:35.090Z,100189.52
2019-05-03T20:13:01.117Z,100182.37
2019-05-03T20:15:27.034Z,100179.19
2019-05-03T20:17:59.259Z,100185.56
2019-05-03T20:20:20.511Z,100182.84
2019-05-03T20:22:47.751Z,100182.19
2019-05-03T20:25:15.186Z,100182.05
2019-05-03T20:27:41.055Z,100184.66
2019-05-03T20:30:06.945Z,100182.00
2019-05-03T20:32:34.503Z,100177.84
2019-05-03T20:35:11.168Z,100177.55
2019-05-03T20:37:28.100Z,100175.03
2019-05-03T20:39:54.496Z,100175.40
2019-05-03T20:42:28.362Z,100169.05
2019-05-03T20:44:56.074Z,100167.61
2019-05-03T20:47:29.667Z,100166.13
2019-05-03T20:50:15.298Z,100163.27
2019-05-03T20:52:41.586Z,100167.64
2019-05-03T20:55:07.359Z,100152.95
2019-05-03T20:57:35.196Z,100149.30
2019-05-03T21:00:01.032Z,100147.97
2019-05-03T21:02:26.847Z,100147.97
2019-05-03T21:04:52.645Z,100147.97
2019-05-03T21:07:18.501Z,100148.66
2019-05-03T21:09:45.573Z,100153.30
2019-05-03T21:12:11.518Z,100157.48
2019-05-03T21:14:37.296Z,100152.98
2019-05-03T21:17:04.994Z,100155.31
2019-05-03T21:19:41.195Z,100154.48
2019-05-03T21:22:08.881Z,100148.98
2019-05-03T21:24:36.554Z,100149.67
2019-05-03T21:27:02.372Z,100155.00
2019-05-03T21:29:28.121Z,100154.67
2019-05-03T21:31:55.227Z,100156.67
2019-05-03T21:34:21.097Z,100151.36
2019-05-03T21:36:46.895Z,100158.18
2019-05-03T21:39:14.517Z,100145.66
2019-05-03T21:41:40.367Z,100147.01
2019-05-03T21:44:06.229Z,100146.67
2019-05-03T21:46:48.530Z,100144.52
2019-05-03T21:49:19.122Z,100146.51
2019-05-03T21:51:45.117Z,100144.50
2019-05-03T21:54:12.423Z,100139.34
2019-05-03T21:56:38.271Z,100143.50
2019-05-03T21:59:05.565Z,100146.34
2019-05-03T22:01:34.975Z,100148.34
2019-05-03T22:04:00.283Z,100136.82
2019-05-03T22:06:26.067Z,100140.02
2019-05-03T22:08:51.859Z,100139.16
2019-05-03T22:11:17.740Z,100136.18
2019-05-03T22:13:46.226Z,100131.50
2019-05-03T22:16:31.083Z,100134.99
2019-05-03T22:19:00.274Z,100133.66
2019-05-03T22:21:28.067Z,100132.32
2019-05-03T22:24:14.837Z,100128.00
2019-05-03T22:26:54.159Z,100135.66
2019-05-03T22:29:19.951Z,100131.66
2019-05-03T22:31:46.154Z,100129.63
2019-05-03T22:34:11.954Z,100134.98
2019-05-03T22:36:37.733Z,100139.50
2019-05-03T22:39:05.319Z,100138.67
2019-05-03T22:41:31.108Z,100146.48
2019-05-03T22:43:56.923Z,100144.83
2019-05-03T22:46:22.697Z,100141.33
2019-05-03T22:48:48.735Z,100129.99
2019-05-03T22:51:15.123Z,100129.99
2019-05-03T22:53:41.306Z,100130.66
2019-05-03T22:56:07.089Z,100131.50
2019-05-03T22:58:32.880Z,100134.68
2019-05-03T23:00:58.655Z,100126.66
2019-05-03T23:03:25.036Z,100128.66
2019-05-03T23:05:51.026Z,100128.66
2019-05-03T23:08:16.804Z,100129.48
2019-05-03T23:10:42.890Z,100118.64
2019-05-03T23:13:09.263Z,100124.50
2019-05-03T23:15:35.059Z,100131.00
2019-05-03T23:18:01.850Z,100144.48
2019-05-03T23:20:46.479Z,100157.99
2019-05-03T23:23:19.688Z,100151.84
2019-05-03T23:25:45.489Z,100171.16
2019-05-03T23:28:12.215Z,100168.98
2019-05-03T23:30:39.223Z,100162.13
2019-05-03T23:33:05.012Z,100160.96
2019-05-03T23:35:30.807Z,100161.11
2019-05-03T23:37:56.588Z,100152.23
2019-05-03T23:40:22.975Z,100147.49
2019-05-03T23:42:48.923Z,100131.33
2019-05-03T23:45:16.048Z,100120.99
2019-05-03T23:47:45.126Z,100111.50
2019-05-03T23:50:13.603Z,100113.17
2019-05-03T23:52:39.384Z,100118.64
2019-05-03T23:55:19.615Z,100120.50
2019-05-03T23:57:45.543Z,100120.50
